createdAt,value
2018-05-27T00:02:23.767Z,8.57
2018-05-27T00:04:57.776Z,7.80
2018-05-27T00:07:32.512Z,8.10
2018-05-27T00:10:07.743Z,8.23
2018-05-27T00:12:41.931Z,8.00
2018-05-27T00:15:15.766Z,8.37
2018-05-27T00:17:50.083Z,8.13
2018-05-27T00:20:24.514Z,8.57
2018-05-27T00:22:58.412Z,8.40
2018-05-27T00:25:32.969Z,7.90
2018-05-27T00:28:07.166Z,7.73
2018-05-27T00:30:41.779Z,8.77
2018-05-27T00:33:17.216Z,8.27
2018-05-27T00:35:51.802Z,8.30
2018-05-27T00:38:26.629Z,9.10
2018-05-27T00:41:01.225Z,8.53
2018-05-27T00:43:34.997Z,8.80
2018-05-27T00:46:11.261Z,8.80
2018-05-27T00:48:44.963Z,7.90
2018-05-27T00:51:20.005Z,8.77
2018-05-27T00:53:59.429Z,8.20
2018-05-27T00:56:34.239Z,8.93
2018-05-27T00:59:08.604Z,8.97
2018-05-27T01:01:44.007Z,8.80
2018-05-27T01:04:18.123Z,8.97
2018-05-27T01:06:53.163Z,9.63
2018-05-27T01:09:27.995Z,9.67
2018-05-27T01:12:02.801Z,9.10
2018-05-27T01:14:37.651Z,8.97
2018-05-27T01:17:12.175Z,8.30
2018-05-27T01:19:46.067Z,8.20
2018-05-27T01:22:22.853Z,8.67
2018-05-27T01:24:57.563Z,9.53
2018-05-27T01:27:32.806Z,8.50
2018-05-27T01:30:07.647Z,8.50
2018-05-27T01:32:42.090Z,9.07
2018-05-27T01:35:16.580Z,8.77
2018-05-27T01:37:50.456Z,9.40
2018-05-27T01:40:24.252Z,9.13
2018-05-27T01:42:59.137Z,9.17
2018-05-27T01:45:32.934Z,8.63
2018-05-27T01:48:07.129Z,9.43
2018-05-27T01:50:41.127Z,9.80
2018-05-27T01:53:15.763Z,9.07
2018-05-27T01:55:51.227Z,8.63
2018-05-27T01:58:25.939Z,9.93
2018-05-27T02:01:01.678Z,9.47
2018-05-27T02:03:35.483Z,9.27
2018-05-27T02:06:10.418Z,8.60
2018-05-27T02:08:45.040Z,9.37
2018-05-27T02:11:19.559Z,9.00
2018-05-27T02:13:53.277Z,8.37
2018-05-27T02:16:30.143Z,8.90
2018-05-27T02:19:04.061Z,8.90
2018-05-27T02:21:38.286Z,9.10
2018-05-27T02:24:12.527Z,8.60
2018-05-27T02:26:46.773Z,8.67
2018-05-27T02:29:20.850Z,9.23
2018-05-27T02:31:54.937Z,9.17
2018-05-27T02:34:28.813Z,8.83
2018-05-27T02:37:02.748Z,9.30
2018-05-27T02:39:36.832Z,10.10
2018-05-27T02:42:11.489Z,9.60
2018-05-27T02:44:45.452Z,8.20
2018-05-27T02:47:20.283Z,9.53
2018-05-27T02:49:53.927Z,9.23
2018-05-27T02:52:27.911Z,8.50
2018-05-27T02:55:03.487Z,8.60
2018-05-27T02:57:38.083Z,9.03
2018-05-27T03:00:12.879Z,8.67
2018-05-27T03:02:47.223Z,8.73
2018-05-27T03:05:21.570Z,8.80
2018-05-27T03:07:56.271Z,9.63
2018-05-27T03:10:31.115Z,9.30
2018-05-27T03:13:05.823Z,9.87
2018-05-27T03:15:41.671Z,10.27
2018-05-27T03:18:16.216Z,10.23
2018-05-27T03:20:49.811Z,10.47
2018-05-27T03:23:25.031Z,9.47
2018-05-27T03:25:59.453Z,8.60
2018-05-27T03:28:35.203Z,9.47
2018-05-27T03:31:09.533Z,8.23
2018-05-27T03:33:44.529Z,9.00
2018-05-27T03:36:18.643Z,9.20
2018-05-27T03:38:52.471Z,9.30
2018-05-27T03:41:26.988Z,9.90
2018-05-27T03:44:02.087Z,9.10
2018-05-27T03:46:36.551Z,8.83
2018-05-27T03:49:10.701Z,9.33
2018-05-27T03:51:44.547Z,10.10
2018-05-27T03:54:19.196Z,9.70
2018-05-27T03:56:53.697Z,9.97
2018-05-27T03:59:28.419Z,9.10
2018-05-27T04:02:03.333Z,9.43
2018-05-27T04:04:59.466Z,9.63
2018-05-27T04:07:44.972Z,8.93
2018-05-27T04:10:18.878Z,8.63
2018-05-27T04:12:55.409Z,8.70
2018-05-27T04:15:29.248Z,9.13
2018-05-27T04:18:03.671Z,8.07
2018-05-27T04:20:38.104Z,8.13
2018-05-27T04:23:13.187Z,8.43
2018-05-27T04:25:46.921Z,8.70
2018-05-27T04:28:22.056Z,8.33
2018-05-27T04:30:55.769Z,8.43
2018-05-27T04:33:29.737Z,9.17
2018-05-27T04:36:04.406Z,8.80
2018-05-27T04:38:38.217Z,8.90
2018-05-27T04:41:12.600Z,9.40
2018-05-27T04:43:46.618Z,8.43
2018-05-27T04:46:21.480Z,8.80
2018-05-27T04:48:55.964Z,8.70
2018-05-27T04:51:30.506Z,8.70
2018-05-27T04:54:05.037Z,8.17
2018-05-27T04:56:39.147Z,9.17
2018-05-27T04:59:14.747Z,8.37
2018-05-27T05:01:49.406Z,8.20
2018-05-27T05:04:24.607Z,8.57
2018-05-27T05:07:00.161Z,8.47
2018-05-27T05:09:34.731Z,8.43
2018-05-27T05:12:08.307Z,8.07
2018-05-27T05:14:42.836Z,8.77
2018-05-27T05:17:20.717Z,8.53
2018-05-27T05:19:55.294Z,8.27
2018-05-27T05:22:30.219Z,8.33
2018-05-27T05:25:06.337Z,8.60
2018-05-27T05:27:40.965Z,8.77
2018-05-27T05:30:14.934Z,9.10
2018-05-27T05:32:50.421Z,8.70
2018-05-27T05:35:25.056Z,8.83
2018-05-27T05:37:59.583Z,8.70
2018-05-27T05:40:36.839Z,7.77
2018-05-27T05:43:11.910Z,8.10
2018-05-27T05:45:45.903Z,9.00
2018-05-27T05:48:21.440Z,8.67
2018-05-27T05:50:55.506Z,8.73
2018-05-27T05:53:29.459Z,8.57
2018-05-27T05:56:03.928Z,9.20
2018-05-27T05:58:38.104Z,8.30
2018-05-27T06:01:12.702Z,8.73
2018-05-27T06:03:46.671Z,9.40
2018-05-27T06:06:21.841Z,8.73
2018-05-27T06:08:55.669Z,8.87
2018-05-27T06:11:29.429Z,9.20
2018-05-27T06:14:03.264Z,9.53
2018-05-27T06:16:37.198Z,8.67
2018-05-27T06:19:11.920Z,8.67
2018-05-27T06:21:47.036Z,8.80
2018-05-27T06:24:21.567Z,8.50
2018-05-27T06:26:56.283Z,8.67
2018-05-27T06:29:31.108Z,8.47
2018-05-27T06:32:05.114Z,8.63
2018-05-27T06:34:39.016Z,8.93
2018-05-27T06:37:15.474Z,8.93
2018-05-27T06:39:49.912Z,8.83
2018-05-27T06:42:24.099Z,9.53
2018-05-27T06:44:58.962Z,10.17
2018-05-27T06:47:34.296Z,9.07
2018-05-27T06:50:09.025Z,8.63
2018-05-27T06:52:43.347Z,9.10
2018-05-27T06:55:17.951Z,9.13
2018-05-27T06:57:52.790Z,9.57
2018-05-27T07:00:26.728Z,9.50
2018-05-27T07:03:01.527Z,9.87
2018-05-27T07:05:36.253Z,9.40
2018-05-27T07:08:09.973Z,9.53
2018-05-27T07:10:43.783Z,9.23
2018-05-27T07:13:18.285Z,10.00
2018-05-27T07:15:53.215Z,9.83
2018-05-27T07:18:27.226Z,9.57
2018-05-27T07:21:02.701Z,9.73
2018-05-27T07:23:36.771Z,9.33
2018-05-27T07:26:11.695Z,9.97
2018-05-27T07:28:48.066Z,9.57
2018-05-27T07:31:22.207Z,10.07
2018-05-27T07:33:56.511Z,9.23
2018-05-27T07:36:31.034Z,8.90
2018-05-27T07:39:06.059Z,9.67
2018-05-27T07:41:39.860Z,9.10
2018-05-27T07:44:14.888Z,9.63
2018-05-27T07:46:48.591Z,9.20
2018-05-27T07:49:23.810Z,9.10
2018-05-27T07:51:58.252Z,9.07
2018-05-27T07:54:33.395Z,9.43
2018-05-27T07:57:08.118Z,8.63
2018-05-27T07:59:45.927Z,8.47
2018-05-27T08:02:20.523Z,8.73
2018-05-27T08:04:54.332Z,8.27
2018-05-27T08:07:28.283Z,8.47
2018-05-27T08:10:02.541Z,8.60
2018-05-27T08:12:37.083Z,8.47
2018-05-27T08:15:12.522Z,8.87
2018-05-27T08:17:47.041Z,7.80
2018-05-27T08:20:22.092Z,7.70
2018-05-27T08:22:56.915Z,7.40
2018-05-27T08:25:31.744Z,7.30
2018-05-27T08:28:05.958Z,7.70
2018-05-27T08:30:40.982Z,7.40
2018-05-27T08:33:16.529Z,7.43
2018-05-27T08:35:52.167Z,7.30
2018-05-27T08:38:27.321Z,7.73
2018-05-27T08:41:01.525Z,7.13
2018-05-27T08:43:35.536Z,7.57
2018-05-27T08:46:10.470Z,6.83
2018-05-27T08:48:46.631Z,7.03
2018-05-27T08:51:20.979Z,7.30
2018-05-27T08:53:55.749Z,6.70
2018-05-27T08:56:30.259Z,6.93
2018-05-27T08:59:05.997Z,6.70
2018-05-27T09:01:40.054Z,6.80
2018-05-27T09:04:15.089Z,6.80
2018-05-27T09:06:49.510Z,6.70
2018-05-27T09:09:23.732Z,6.47
2018-05-27T09:11:59.485Z,5.97
2018-05-27T09:14:35.426Z,6.03
2018-05-27T09:17:10.755Z,6.30
2018-05-27T09:19:45.446Z,6.30
2018-05-27T09:22:20.238Z,6.00
2018-05-27T09:24:55.685Z,6.13
2018-05-27T09:27:29.467Z,5.73
2018-05-27T09:30:03.636Z,5.93
2018-05-27T09:32:38.410Z,5.50
2018-05-27T09:35:12.325Z,6.33
2018-05-27T09:37:47.725Z,6.03
2018-05-27T09:40:22.456Z,6.27
2018-05-27T09:42:56.692Z,6.00
2018-05-27T09:45:30.905Z,5.57
2018-05-27T09:48:06.348Z,5.47
2018-05-27T09:50:41.287Z,5.00
2018-05-27T09:53:16.467Z,5.80
2018-05-27T09:55:52.018Z,4.73
2018-05-27T09:58:26.790Z,4.60
2018-05-27T10:01:01.615Z,4.67
2018-05-27T10:03:36.433Z,5.23
2018-05-27T10:06:10.864Z,5.10
2018-05-27T10:08:45.895Z,5.07
2018-05-27T10:11:19.909Z,5.60
2018-05-27T10:13:55.452Z,5.70
2018-05-27T10:16:29.677Z,5.50
2018-05-27T10:19:04.649Z,5.40
2018-05-27T10:21:38.611Z,5.37
2018-05-27T10:24:13.124Z,5.33
2018-05-27T10:26:46.920Z,5.23
2018-05-27T10:29:21.474Z,5.63
2018-05-27T10:31:56.018Z,5.40
2018-05-27T10:34:29.723Z,5.23
2018-05-27T10:37:04.124Z,4.77
2018-05-27T10:39:37.900Z,4.47
2018-05-27T10:42:12.205Z,4.80
2018-05-27T10:44:46.571Z,4.60
2018-05-27T10:47:20.274Z,4.93
2018-05-27T10:49:53.903Z,5.23
2018-05-27T10:52:27.395Z,4.80
2018-05-27T10:55:01.209Z,5.00
2018-05-27T10:57:35.671Z,4.57
2018-05-27T11:00:09.400Z,3.97
2018-05-27T11:02:43.127Z,4.20
2018-05-27T11:05:16.988Z,3.63
2018-05-27T11:07:51.302Z,4.10
2018-05-27T11:10:25.827Z,4.10
2018-05-27T11:13:00.533Z,3.90
2018-05-27T11:15:35.578Z,4.20
2018-05-27T11:18:10.477Z,3.93
2018-05-27T11:20:46.307Z,3.90
2018-05-27T11:23:21.397Z,4.20
2018-05-27T11:25:56.614Z,5.00
2018-05-27T11:28:32.439Z,4.90
2018-05-27T11:31:07.196Z,4.33
2018-05-27T11:33:42.841Z,4.57
2018-05-27T11:36:17.260Z,4.13
2018-05-27T11:38:51.680Z,4.27
2018-05-27T11:41:27.239Z,4.30
2018-05-27T11:44:01.436Z,4.07
2018-05-27T11:46:35.335Z,4.27
2018-05-27T11:49:09.751Z,4.67
2018-05-27T11:51:43.408Z,4.13
2018-05-27T11:54:17.716Z,4.37
2018-05-27T11:56:52.826Z,4.40
2018-05-27T11:59:26.808Z,4.20
2018-05-27T12:02:01.272Z,4.73
2018-05-27T12:04:35.656Z,4.60
2018-05-27T12:07:10.164Z,4.33
2018-05-27T12:09:44.648Z,4.70
2018-05-27T12:12:19.105Z,4.20
2018-05-27T12:14:53.620Z,4.30
2018-05-27T12:17:27.331Z,4.47
2018-05-27T12:20:02.055Z,4.47
2018-05-27T12:22:35.656Z,4.27
2018-05-27T12:25:10.227Z,4.40
2018-05-27T12:27:44.174Z,4.27
2018-05-27T12:30:17.849Z,4.13
2018-05-27T12:32:52.936Z,4.53
2018-05-27T12:35:28.046Z,4.07
2018-05-27T12:38:03.722Z,4.50
2018-05-27T12:40:37.466Z,4.60
2018-05-27T12:43:11.429Z,4.47
2018-05-27T12:45:45.845Z,4.20
2018-05-27T12:48:20.455Z,4.10
2018-05-27T12:50:56.356Z,4.53
2018-05-27T12:53:31.384Z,4.40
2018-05-27T12:56:05.544Z,4.23
2018-05-27T12:58:40.907Z,4.70
2018-05-27T13:01:14.616Z,4.67
2018-05-27T13:03:48.606Z,4.43
2018-05-27T13:06:22.820Z,5.20
2018-05-27T13:08:57.336Z,4.73
2018-05-27T13:11:31.352Z,5.10
2018-05-27T13:14:07.404Z,5.13
2018-05-27T13:16:43.350Z,4.40
2018-05-27T13:19:17.871Z,4.80
2018-05-27T13:21:52.513Z,4.73
2018-05-27T13:24:27.439Z,4.77
2018-05-27T13:27:02.465Z,4.80
2018-05-27T13:29:37.692Z,4.47
2018-05-27T13:32:14.025Z,4.70
2018-05-27T13:34:48.585Z,4.43
2018-05-27T13:37:23.706Z,4.90
2018-05-27T13:39:58.235Z,4.57
2018-05-27T13:42:33.884Z,4.53
2018-05-27T13:45:07.485Z,5.10
2018-05-27T13:47:41.743Z,4.90
2018-05-27T13:50:16.527Z,4.90
2018-05-27T13:52:51.362Z,4.73
2018-05-27T13:55:26.609Z,4.87
2018-05-27T13:58:00.806Z,4.43
2018-05-27T14:00:42.190Z,4.77
2018-05-27T14:03:16.902Z,4.53
2018-05-27T14:05:50.731Z,4.60
2018-05-27T14:08:25.955Z,5.07
2018-05-27T14:11:00.583Z,4.70
2018-05-27T14:13:36.027Z,4.40
2018-05-27T14:16:11.259Z,4.80
2018-05-27T14:18:46.513Z,4.60
2018-05-27T14:21:21.631Z,5.10
2018-05-27T14:23:57.071Z,4.57
2018-05-27T14:26:32.378Z,4.77
2018-05-27T14:29:06.835Z,5.30
2018-05-27T14:31:42.807Z,4.80
2018-05-27T14:34:17.421Z,5.03
2018-05-27T14:36:54.688Z,4.90
2018-05-27T14:39:29.216Z,4.90
2018-05-27T14:42:03.058Z,4.90
2018-05-27T14:44:38.281Z,5.10
2018-05-27T14:47:12.477Z,4.47
2018-05-27T14:49:47.016Z,4.80
2018-05-27T14:52:21.480Z,4.60
2018-05-27T14:54:56.161Z,5.33
2018-05-27T14:57:29.848Z,4.90
2018-05-27T15:00:04.257Z,4.90
2018-05-27T15:02:39.501Z,4.87
2018-05-27T15:05:14.233Z,5.13
2018-05-27T15:07:48.960Z,5.10
2018-05-27T15:10:23.041Z,5.40
2018-05-27T15:12:57.081Z,5.03
2018-05-27T15:15:31.187Z,5.63
2018-05-27T15:18:06.225Z,5.60
2018-05-27T15:20:40.493Z,5.33
2018-05-27T15:23:14.895Z,5.53
2018-05-27T15:25:50.791Z,5.20
2018-05-27T15:28:25.649Z,5.47
2018-05-27T15:31:02.843Z,5.40
2018-05-27T15:33:37.244Z,5.80
2018-05-27T15:36:11.661Z,5.57
2018-05-27T15:38:46.274Z,5.27
2018-05-27T15:41:20.406Z,5.90
2018-05-27T15:43:55.730Z,5.37
2018-05-27T15:46:31.572Z,5.10
2018-05-27T15:49:05.921Z,5.47
2018-05-27T15:51:40.867Z,5.70
2018-05-27T15:54:15.363Z,5.37
2018-05-27T15:56:48.929Z,5.60
2018-05-27T15:59:24.391Z,5.10
2018-05-27T16:01:59.567Z,4.70
2018-05-27T16:04:35.086Z,5.20
2018-05-27T16:07:09.730Z,4.93
2018-05-27T16:09:44.184Z,4.63
2018-05-27T16:12:17.984Z,5.17
2018-05-27T16:14:52.713Z,4.83
2018-05-27T16:17:27.550Z,4.87
2018-05-27T16:20:02.341Z,5.53
2018-05-27T16:22:36.371Z,5.37
2018-05-27T16:25:10.846Z,5.77
2018-05-27T16:27:45.543Z,5.37
2018-05-27T16:30:20.158Z,5.40
2018-05-27T16:32:54.920Z,5.87
2018-05-27T16:35:30.251Z,5.50
2018-05-27T16:38:03.909Z,5.50
2018-05-27T16:40:37.673Z,5.70
2018-05-27T16:43:12.083Z,5.40
2018-05-27T16:45:46.830Z,5.97
2018-05-27T16:48:20.887Z,5.20
2018-05-27T16:50:56.896Z,4.87
2018-05-27T16:53:31.496Z,5.10
2018-05-27T16:56:05.879Z,5.10
2018-05-27T16:58:40.432Z,5.37
2018-05-27T17:01:15.128Z,4.80
2018-05-27T17:03:48.836Z,4.90
2018-05-27T17:06:23.673Z,5.23
2018-05-27T17:08:59.145Z,5.10
2018-05-27T17:11:33.739Z,5.37
2018-05-27T17:14:08.204Z,5.10
2018-05-27T17:16:43.084Z,5.27
2018-05-27T17:19:17.681Z,5.50
2018-05-27T17:21:52.228Z,5.20
2018-05-27T17:24:26.158Z,5.60
2018-05-27T17:27:00.671Z,4.97
2018-05-27T17:29:35.997Z,5.47
2018-05-27T17:32:10.327Z,5.70
2018-05-27T17:34:47.215Z,5.00
2018-05-27T17:37:22.842Z,5.20
2018-05-27T17:39:57.220Z,6.23
2018-05-27T17:42:31.290Z,10.83
2018-05-27T17:45:05.102Z,5.73
2018-05-27T17:47:39.694Z,5.33
2018-05-27T17:50:14.730Z,5.30
2018-05-27T17:52:49.149Z,5.70
2018-05-27T17:55:23.875Z,5.77
2018-05-27T17:57:58.511Z,5.47
2018-05-27T18:00:33.961Z,5.70
2018-05-27T18:03:08.779Z,5.13
2018-05-27T18:05:44.624Z,5.40
2018-05-27T18:08:19.156Z,5.67
2018-05-27T18:10:54.999Z,5.57
2018-05-27T18:13:29.074Z,6.07
2018-05-27T18:16:04.348Z,5.70
2018-05-27T18:18:39.293Z,5.53
2018-05-27T18:21:14.111Z,5.90
2018-05-27T18:23:47.812Z,5.80
2018-05-27T18:26:21.619Z,5.83
2018-05-27T18:28:56.343Z,5.80
2018-05-27T18:31:30.244Z,5.27
2018-05-27T18:34:05.232Z,5.73
2018-05-27T18:36:38.990Z,6.10
2018-05-27T18:39:14.228Z,5.73
2018-05-27T18:41:48.040Z,5.97
2018-05-27T18:44:22.956Z,6.07
2018-05-27T18:46:57.910Z,5.90
2018-05-27T18:49:32.269Z,5.87
2018-05-27T18:52:06.019Z,6.03
2018-05-27T18:54:39.872Z,6.10
2018-05-27T18:57:14.252Z,6.20
2018-05-27T18:59:49.065Z,6.23
2018-05-27T19:02:23.580Z,6.10
2018-05-27T19:04:57.255Z,6.60
2018-05-27T19:07:31.100Z,6.87
2018-05-27T19:10:04.968Z,13.83
2018-05-27T19:12:39.607Z,7.03
2018-05-27T19:15:13.315Z,6.80
2018-05-27T19:17:47.440Z,6.60
2018-05-27T19:20:21.442Z,6.77
2018-05-27T19:22:55.434Z,6.43
2018-05-27T19:25:29.581Z,6.70
2018-05-27T19:28:03.308Z,6.80
2018-05-27T19:30:37.177Z,7.13
2018-05-27T19:33:11.036Z,6.63
2018-05-27T19:35:45.544Z,7.10
2018-05-27T19:38:19.153Z,7.30
2018-05-27T19:40:52.919Z,7.17
2018-05-27T19:43:27.896Z,7.40
2018-05-27T19:46:03.437Z,7.23
2018-05-27T19:48:37.739Z,7.23
2018-05-27T19:51:11.927Z,7.00
2018-05-27T19:53:45.913Z,7.70
2018-05-27T19:56:19.696Z,8.83
2018-05-27T19:58:54.704Z,9.30
2018-05-27T20:01:29.588Z,8.03
2018-05-27T20:04:03.689Z,7.30
2018-05-27T20:06:38.038Z,7.57
2018-05-27T20:09:11.693Z,7.40
2018-05-27T20:11:45.420Z,7.30
2018-05-27T20:14:19.277Z,7.97
2018-05-27T20:16:54.917Z,7.77
2018-05-27T20:19:29.765Z,8.13
2018-05-27T20:22:06.688Z,7.33
2018-05-27T20:24:41.056Z,7.73
2018-05-27T20:27:16.850Z,7.83
2018-05-27T20:29:51.260Z,7.63
2018-05-27T20:32:26.186Z,7.70
2018-05-27T20:35:00.308Z,7.73
2018-05-27T20:37:35.948Z,7.90
2018-05-27T20:40:09.662Z,6.93
2018-05-27T20:42:43.785Z,7.60
2018-05-27T20:45:18.292Z,10.03
2018-05-27T20:47:51.990Z,10.67
2018-05-27T20:50:25.725Z,7.93
2018-05-27T20:53:06.053Z,8.00
2018-05-27T20:55:42.825Z,8.07
2018-05-27T20:58:17.419Z,8.10
2018-05-27T21:00:52.269Z,8.10
2018-05-27T21:03:26.907Z,8.20
2018-05-27T21:06:01.075Z,7.97
2018-05-27T21:08:36.449Z,8.00
2018-05-27T21:11:11.515Z,8.17
2018-05-27T21:13:45.571Z,7.50
2018-05-27T21:16:19.809Z,7.57
2018-05-27T21:18:54.427Z,8.30
2018-05-27T21:21:28.946Z,8.40
2018-05-27T21:24:05.821Z,7.73
2018-05-27T21:26:41.702Z,8.37
2018-05-27T21:29:17.530Z,7.70
2018-05-27T21:31:54.301Z,8.33
2018-05-27T21:34:29.353Z,7.70
2018-05-27T21:37:06.457Z,7.63
2018-05-27T21:39:40.352Z,7.73
2018-05-27T21:42:15.369Z,8.20
2018-05-27T21:44:49.376Z,7.70
2018-05-27T21:47:24.840Z,8.00
2018-05-27T21:49:59.271Z,8.47
2018-05-27T21:52:34.615Z,8.10
2018-05-27T21:55:08.699Z,7.90
2018-05-27T21:57:43.844Z,8.80
2018-05-27T22:00:17.420Z,8.53
2018-05-27T22:02:51.328Z,7.83
2018-05-27T22:05:26.270Z,7.90
2018-05-27T22:08:01.917Z,8.23
2018-05-27T22:10:36.009Z,8.93
2018-05-27T22:13:09.634Z,8.53
2018-05-27T22:15:44.139Z,7.93
2018-05-27T22:18:17.990Z,8.27
2018-05-27T22:20:54.111Z,8.70
2018-05-27T22:23:28.091Z,8.17
2018-05-27T22:26:03.148Z,7.97
2018-05-27T22:28:37.360Z,8.20
2018-05-27T22:31:11.664Z,8.30
2018-05-27T22:33:46.573Z,8.27
2018-05-27T22:36:20.732Z,9.43
2018-05-27T22:38:54.743Z,9.27
2018-05-27T22:41:28.915Z,9.37
2018-05-27T22:44:03.560Z,9.10
2018-05-27T22:46:37.791Z,9.27
2018-05-27T22:49:12.585Z,9.63
2018-05-27T22:51:47.358Z,10.50
2018-05-27T22:54:22.565Z,9.43
2018-05-27T22:56:57.426Z,9.40
2018-05-27T22:59:31.206Z,10.30
2018-05-27T23:02:05.892Z,9.90
2018-05-27T23:04:40.554Z,9.63
2018-05-27T23:07:14.324Z,9.27
2018-05-27T23:09:48.083Z,9.60
2018-05-27T23:12:22.246Z,10.87
2018-05-27T23:14:56.991Z,9.20
2018-05-27T23:17:31.214Z,8.93
2018-05-27T23:20:05.339Z,9.37
2018-05-27T23:22:39.561Z,9.70
2018-05-27T23:25:13.867Z,9.10
2018-05-27T23:27:47.757Z,9.47
2018-05-27T23:30:22.383Z,9.60
2018-05-27T23:32:56.369Z,9.63
2018-05-27T23:35:30.292Z,9.90
2018-05-27T23:38:05.296Z,10.07
2018-05-27T23:40:39.655Z,10.43
2018-05-27T23:43:14.362Z,9.63
2018-05-27T23:45:48.407Z,9.83
2018-05-27T23:48:23.768Z,10.03
2018-05-27T23:50:57.367Z,10.50
2018-05-27T23:53:30.862Z,9.97
2018-05-27T23:56:05.839Z,9.47
2018-05-27T23:58:40.479Z,8.97
